createdAt,value
2022-12-16T00:00:17.909Z,7.16
2022-12-16T00:02:47.765Z,7.17
2022-12-16T00:05:16.444Z,7.16
2022-12-16T00:07:44.840Z,7.16
2022-12-16T00:10:13.522Z,7.15
2022-12-16T00:12:42.175Z,7.15
2022-12-16T00:15:11.913Z,7.13
2022-12-16T00:17:40.819Z,7.15
2022-12-16T00:20:12.699Z,7.14
2022-12-16T00:22:41.068Z,7.13
2022-12-16T00:25:10.658Z,7.11
2022-12-16T00:27:39.014Z,7.11
2022-12-16T00:30:09.671Z,7.11
2022-12-16T00:32:37.986Z,7.11
2022-12-16T00:35:07.420Z,7.12
2022-12-16T00:37:37.148Z,7.10
2022-12-16T00:40:07.171Z,7.09
2022-12-16T00:42:35.576Z,7.11
2022-12-16T00:45:04.879Z,7.15
2022-12-16T00:47:33.272Z,7.21
2022-12-16T00:50:01.949Z,7.24
2022-12-16T00:52:30.520Z,7.29
2022-12-16T00:55:00.351Z,7.31
2022-12-16T00:57:28.727Z,7.32
2022-12-16T00:59:57.099Z,7.33
2022-12-16T01:02:25.564Z,7.33
2022-12-16T01:04:54.048Z,7.32
2022-12-16T01:07:23.293Z,7.32
2022-12-16T01:09:52.342Z,7.34
2022-12-16T01:12:25.036Z,7.36
2022-12-16T01:14:53.404Z,7.40
2022-12-16T01:17:22.077Z,7.44
2022-12-16T01:19:50.475Z,7.45
2022-12-16T01:22:19.432Z,7.44
2022-12-16T01:24:47.853Z,7.46
2022-12-16T01:27:16.875Z,7.45
2022-12-16T01:29:46.601Z,7.45
2022-12-16T01:32:16.093Z,7.47
2022-12-16T01:34:48.451Z,7.50
2022-12-16T01:37:20.567Z,7.53
2022-12-16T01:39:49.233Z,7.53
2022-12-16T01:42:19.789Z,7.53
2022-12-16T01:44:55.026Z,7.53
2022-12-16T01:47:27.861Z,7.53
2022-12-16T01:50:04.026Z,7.55
2022-12-16T01:52:38.809Z,7.56
2022-12-16T01:55:12.615Z,7.58
2022-12-16T01:57:47.284Z,7.58
2022-12-16T02:00:18.111Z,7.58
2022-12-16T02:02:48.617Z,7.58
2022-12-16T02:05:24.438Z,7.57
2022-12-16T02:08:01.003Z,7.56
2022-12-16T02:10:48.551Z,7.55
2022-12-16T02:13:27.773Z,7.55
2022-12-16T02:16:09.965Z,7.55
2022-12-16T02:18:51.003Z,7.56
2022-12-16T02:21:40.306Z,7.56
2022-12-16T02:25:10.552Z,7.55
2022-12-16T02:27:56.926Z,7.54
2022-12-16T02:31:03.420Z,7.52
2022-12-16T02:34:03.325Z,7.52
2022-12-16T02:36:55.493Z,7.52
2022-12-16T02:39:29.728Z,7.53
2022-12-16T02:42:13.119Z,7.54
2022-12-16T02:44:54.328Z,7.55
2022-12-16T02:47:24.702Z,7.56
2022-12-16T02:49:55.223Z,7.57
2022-12-16T02:52:27.255Z,7.60
2022-12-16T02:55:00.541Z,7.62
2022-12-16T02:58:11.775Z,7.61
2022-12-16T03:00:53.571Z,7.62
2022-12-16T03:03:29.885Z,7.65
2022-12-16T03:06:01.373Z,7.65
2022-12-16T03:08:35.196Z,7.66
2022-12-16T03:11:06.230Z,7.66
2022-12-16T03:13:40.967Z,7.67
2022-12-16T03:16:13.335Z,7.66
2022-12-16T03:18:47.821Z,7.66
2022-12-16T03:21:17.122Z,7.66
2022-12-16T03:23:54.224Z,7.66
2022-12-16T03:26:28.755Z,7.68
2022-12-16T03:29:03.364Z,7.69
2022-12-16T03:31:39.926Z,7.69
2022-12-16T03:34:18.299Z,7.69
2022-12-16T03:36:52.653Z,7.72
2022-12-16T03:39:23.232Z,7.70
2022-12-16T03:41:54.528Z,7.68
2022-12-16T03:44:26.417Z,7.66
2022-12-16T03:46:55.021Z,7.65
2022-12-16T03:49:24.804Z,7.64
2022-12-16T03:51:54.625Z,7.63
2022-12-16T03:54:24.338Z,7.62
2022-12-16T03:56:52.783Z,7.61
2022-12-16T03:59:21.352Z,7.63
2022-12-16T04:01:50.096Z,7.66
2022-12-16T04:04:19.374Z,7.69
2022-12-16T04:07:09.980Z,7.73
2022-12-16T04:09:38.386Z,7.73
2022-12-16T04:12:21.397Z,7.74
2022-12-16T04:15:06.986Z,7.74
2022-12-16T04:17:53.242Z,7.74
2022-12-16T04:20:41.714Z,7.75
2022-12-16T04:23:30.723Z,7.77
2022-12-16T04:25:59.662Z,7.82
2022-12-16T04:28:28.027Z,7.86
2022-12-16T04:30:56.833Z,7.91
2022-12-16T04:33:43.105Z,7.96
2022-12-16T04:36:28.692Z,8.01
2022-12-16T04:39:15.539Z,8.03
2022-12-16T04:42:01.469Z,8.04
2022-12-16T04:44:47.127Z,8.03
2022-12-16T04:47:32.798Z,8.01
2022-12-16T04:50:18.629Z,8.01
2022-12-16T04:53:04.226Z,8.02
2022-12-16T04:55:51.527Z,8.02
2022-12-16T04:58:37.362Z,8.04
2022-12-16T05:01:23.296Z,8.04
2022-12-16T05:04:09.567Z,8.06
2022-12-16T05:06:55.409Z,8.07
2022-12-16T05:09:41.355Z,8.08
2022-12-16T05:12:28.313Z,8.11
2022-12-16T05:15:14.292Z,8.14
2022-12-16T05:18:00.254Z,8.16
2022-12-16T05:20:46.112Z,8.18
2022-12-16T05:23:32.313Z,8.17
2022-12-16T05:26:18.382Z,8.16
2022-12-16T05:29:05.333Z,8.17
2022-12-16T05:31:51.222Z,8.17
2022-12-16T05:34:33.464Z,8.21
2022-12-16T05:37:19.059Z,8.24
2022-12-16T05:40:05.001Z,8.27
2022-12-16T05:43:05.065Z,8.30
2022-12-16T05:45:52.533Z,8.33
2022-12-16T05:48:40.984Z,8.35
2022-12-16T05:51:30.227Z,8.37
2022-12-16T05:54:15.812Z,8.38
2022-12-16T05:57:01.872Z,8.39
2022-12-16T05:59:47.656Z,8.38
2022-12-16T06:02:34.852Z,8.39
2022-12-16T06:05:20.840Z,8.40
2022-12-16T06:08:25.271Z,8.44
2022-12-16T06:11:11.249Z,8.46
2022-12-16T06:13:57.251Z,8.44
2022-12-16T06:16:42.851Z,8.42
2022-12-16T06:19:30.160Z,8.43
2022-12-16T06:22:15.899Z,8.45
2022-12-16T06:25:01.420Z,8.48
2022-12-16T06:27:47.069Z,8.49
2022-12-16T06:30:33.236Z,8.49
2022-12-16T06:33:19.134Z,8.49
2022-12-16T06:36:06.142Z,8.49
2022-12-16T06:39:00.492Z,8.50
2022-12-16T06:41:46.203Z,8.51
2022-12-16T06:44:32.221Z,8.49
2022-12-16T06:47:18.123Z,8.51
2022-12-16T06:50:03.784Z,8.52
2022-12-16T06:52:50.922Z,8.54
2022-12-16T06:55:37.214Z,8.55
2022-12-16T06:58:23.023Z,8.56
2022-12-16T07:01:09.310Z,8.57
2022-12-16T07:03:54.981Z,8.57
2022-12-16T07:06:40.856Z,8.61
2022-12-16T07:09:27.961Z,8.62
2022-12-16T07:12:13.866Z,8.60
2022-12-16T07:14:59.584Z,8.61
2022-12-16T07:17:45.511Z,8.63
2022-12-16T07:20:31.866Z,8.62
2022-12-16T07:23:32.342Z,8.60
2022-12-16T07:26:19.973Z,8.59
2022-12-16T07:29:05.486Z,8.60
2022-12-16T07:31:51.365Z,8.57
2022-12-16T07:34:41.285Z,8.53
2022-12-16T07:37:28.706Z,8.48
2022-12-16T07:40:14.575Z,8.42
2022-12-16T07:43:04.802Z,8.40
2022-12-16T07:45:51.106Z,8.39
2022-12-16T07:48:36.765Z,8.38
2022-12-16T07:51:22.563Z,8.38
2022-12-16T07:54:08.216Z,8.41
2022-12-16T07:56:53.928Z,8.42
2022-12-16T07:59:52.650Z,8.40
2022-12-16T08:02:38.328Z,8.38
2022-12-16T08:05:25.124Z,8.40
2022-12-16T08:08:10.700Z,8.42
2022-12-16T08:10:56.687Z,8.39
2022-12-16T08:13:42.981Z,8.35
2022-12-16T08:16:30.153Z,8.30
2022-12-16T08:19:16.326Z,8.23
2022-12-16T08:22:02.404Z,8.20
2022-12-16T08:24:53.192Z,8.19
2022-12-16T08:27:39.511Z,8.31
2022-12-16T08:30:27.666Z,8.28
2022-12-16T08:33:19.321Z,8.43
2022-12-16T08:36:06.411Z,8.37
2022-12-16T08:38:52.823Z,8.35
2022-12-16T08:41:38.764Z,8.33
2022-12-16T08:44:24.896Z,8.28
2022-12-16T08:47:10.670Z,8.24
2022-12-16T08:50:01.532Z,8.19
2022-12-16T08:52:49.094Z,8.16
2022-12-16T08:55:35.287Z,8.09
2022-12-16T08:58:20.856Z,8.02
2022-12-16T09:01:07.964Z,7.97
2022-12-16T09:03:54.174Z,7.93
2022-12-16T09:06:41.936Z,7.90
2022-12-16T09:09:28.251Z,7.91
2022-12-16T09:12:14.064Z,7.91
2022-12-16T09:14:59.800Z,7.92
2022-12-16T09:17:45.534Z,7.95
2022-12-16T09:20:31.586Z,7.95
2022-12-16T09:23:31.747Z,7.94
2022-12-16T09:26:17.617Z,7.92
2022-12-16T09:29:03.639Z,7.90
2022-12-16T09:31:49.274Z,7.89
2022-12-16T09:34:35.065Z,7.88
2022-12-16T09:37:21.047Z,7.88
2022-12-16T09:40:13.764Z,7.88
2022-12-16T09:43:09.138Z,7.90
2022-12-16T09:46:07.440Z,7.98
2022-12-16T09:49:00.564Z,8.02
2022-12-16T09:51:47.739Z,7.98
2022-12-16T09:54:38.206Z,7.97
2022-12-16T09:57:28.795Z,7.97
2022-12-16T10:00:21.080Z,8.01
2022-12-16T10:03:09.391Z,8.07
2022-12-16T10:06:15.512Z,8.13
2022-12-16T10:09:11.160Z,8.25
2022-12-16T10:12:11.140Z,8.36
2022-12-16T10:15:07.459Z,8.48
2022-12-16T10:17:59.844Z,8.63
2022-12-16T10:20:58.035Z,8.77
2022-12-16T10:23:50.810Z,8.90
2022-12-16T10:26:48.304Z,8.98
2022-12-16T10:29:38.774Z,9.04
2022-12-16T10:32:37.422Z,9.08
2022-12-16T10:35:38.042Z,9.09
2022-12-16T10:38:36.882Z,9.05
2022-12-16T10:41:23.215Z,8.99
2022-12-16T10:44:10.369Z,8.91
2022-12-16T10:46:56.376Z,8.84
2022-12-16T10:49:43.587Z,8.81
2022-12-16T10:52:32.275Z,8.78
2022-12-16T10:55:31.110Z,8.75
2022-12-16T10:58:37.898Z,8.75
2022-12-16T11:01:56.332Z,8.79
2022-12-16T11:04:52.207Z,8.82
2022-12-16T11:07:50.882Z,8.85
2022-12-16T11:10:54.124Z,8.86
2022-12-16T11:13:44.423Z,8.93
2022-12-16T11:16:35.831Z,8.97
2022-12-16T11:19:23.031Z,9.03
2022-12-16T11:22:23.846Z,9.06
2022-12-16T11:25:25.179Z,9.04
2022-12-16T11:28:22.548Z,9.04
2022-12-16T11:31:12.525Z,9.08
2022-12-16T11:33:58.730Z,9.09
2022-12-16T11:36:45.755Z,9.10
2022-12-16T11:39:36.626Z,9.09
2022-12-16T11:42:24.042Z,9.08
2022-12-16T11:45:15.597Z,9.07
2022-12-16T11:48:05.719Z,9.07
2022-12-16T11:50:55.507Z,9.11
2022-12-16T11:53:51.054Z,9.07
2022-12-16T11:56:57.050Z,9.07
2022-12-16T11:59:52.186Z,9.01
2022-12-16T12:02:51.326Z,8.96
2022-12-16T12:05:41.040Z,8.94
2022-12-16T12:08:39.896Z,8.91
2022-12-16T12:11:35.991Z,8.86
2022-12-16T12:14:39.225Z,8.84
2022-12-16T12:17:41.228Z,8.87
2022-12-16T12:20:55.793Z,8.90
2022-12-16T12:23:56.665Z,8.91
2022-12-16T12:26:49.514Z,8.90
2022-12-16T12:29:51.299Z,8.92
2022-12-16T12:32:45.526Z,9.11
2022-12-16T12:35:50.527Z,9.09
2022-12-16T12:38:43.430Z,9.12
2022-12-16T12:41:48.498Z,9.07
2022-12-16T12:44:49.464Z,9.02
2022-12-16T12:47:37.596Z,9.01
2022-12-16T12:50:32.563Z,9.00
2022-12-16T12:53:34.604Z,8.98
2022-12-16T12:56:29.054Z,8.97
2022-12-16T12:59:21.881Z,9.01
2022-12-16T13:02:12.036Z,9.03
2022-12-16T13:04:58.630Z,9.07
2022-12-16T13:07:45.104Z,9.11
2022-12-16T13:10:54.257Z,9.12
2022-12-16T13:13:53.276Z,9.16
2022-12-16T13:17:25.989Z,9.15
2022-12-16T13:20:16.870Z,9.17
2022-12-16T13:23:04.819Z,9.21
2022-12-16T13:26:09.798Z,9.21
2022-12-16T13:28:59.280Z,9.18
2022-12-16T13:31:48.861Z,9.13
2022-12-16T13:34:47.073Z,9.12
2022-12-16T13:37:42.386Z,9.07
2022-12-16T13:40:37.532Z,9.02
2022-12-16T13:43:24.115Z,8.95
2022-12-16T13:46:35.994Z,8.86
2022-12-16T13:50:04.126Z,8.80
2022-12-16T13:53:01.439Z,8.73
2022-12-16T13:55:52.180Z,8.67
2022-12-16T13:58:55.059Z,8.60
2022-12-16T14:01:55.683Z,8.60
2022-12-16T14:04:48.122Z,8.55
2022-12-16T14:07:36.837Z,8.50
2022-12-16T14:10:23.784Z,8.48
2022-12-16T14:13:21.862Z,8.44
2022-12-16T14:16:20.736Z,8.41
2022-12-16T14:19:26.555Z,8.35
2022-12-16T14:22:21.288Z,8.32
2022-12-16T14:25:09.599Z,8.27
2022-12-16T14:27:55.590Z,8.26
2022-12-16T14:30:44.658Z,8.25
2022-12-16T14:33:42.611Z,8.25
2022-12-16T14:36:43.942Z,8.21
2022-12-16T14:39:32.138Z,8.22
2022-12-16T14:42:19.522Z,8.24
2022-12-16T14:45:06.847Z,8.21
2022-12-16T14:47:52.907Z,8.19
2022-12-16T14:50:43.910Z,8.17
2022-12-16T14:53:37.667Z,8.14
2022-12-16T14:56:36.171Z,8.09
2022-12-16T14:59:31.703Z,8.03
2022-12-16T15:02:29.163Z,7.97
2022-12-16T15:05:15.776Z,7.91
2022-12-16T15:08:07.268Z,7.89
2022-12-16T15:10:53.745Z,7.88
2022-12-16T15:13:40.876Z,7.86
2022-12-16T15:16:37.449Z,7.83
2022-12-16T15:19:23.983Z,7.79
2022-12-16T15:22:09.836Z,7.76
2022-12-16T15:24:57.445Z,7.75
2022-12-16T15:27:45.145Z,7.75
2022-12-16T15:30:56.800Z,7.75
2022-12-16T15:33:47.115Z,7.76
2022-12-16T15:36:44.499Z,7.77
2022-12-16T15:39:40.205Z,7.77
2022-12-16T15:42:39.532Z,7.76
2022-12-16T15:45:37.388Z,7.76
2022-12-16T15:48:36.032Z,7.75
2022-12-16T15:51:23.756Z,7.73
2022-12-16T15:54:21.973Z,7.70
2022-12-16T15:57:07.998Z,7.69
2022-12-16T15:59:56.450Z,7.69
2022-12-16T16:02:45.810Z,7.70
2022-12-16T16:05:33.688Z,7.68
2022-12-16T16:08:20.953Z,7.68
2022-12-16T16:11:06.631Z,7.66
2022-12-16T16:13:52.360Z,7.65
2022-12-16T16:16:38.402Z,7.63
2022-12-16T16:19:30.826Z,7.64
2022-12-16T16:22:16.891Z,7.62
2022-12-16T16:25:04.073Z,7.57
2022-12-16T16:27:50.583Z,7.56
2022-12-16T16:30:36.562Z,7.55
2022-12-16T16:33:23.576Z,7.54
2022-12-16T16:36:09.486Z,7.52
2022-12-16T16:38:55.397Z,7.50
2022-12-16T16:41:43.352Z,7.48
2022-12-16T16:44:29.237Z,7.46
2022-12-16T16:47:28.281Z,7.45
2022-12-16T16:50:19.124Z,7.40
2022-12-16T16:53:05.139Z,7.36
2022-12-16T16:55:50.916Z,7.36
2022-12-16T16:58:45.479Z,7.34
2022-12-16T17:01:34.850Z,7.34
2022-12-16T17:04:21.176Z,7.34
2022-12-16T17:07:07.404Z,7.33
2022-12-16T17:09:53.367Z,7.32
2022-12-16T17:12:42.095Z,7.31
2022-12-16T17:15:36.175Z,7.28
2022-12-16T17:18:23.669Z,7.25
2022-12-16T17:21:10.498Z,7.22
2022-12-16T17:23:57.466Z,7.22
2022-12-16T17:26:43.831Z,7.20
2022-12-16T17:29:38.726Z,7.18
2022-12-16T17:32:26.965Z,7.18
2022-12-16T17:35:12.759Z,7.16
2022-12-16T17:37:58.775Z,7.16
2022-12-16T17:40:45.559Z,7.13
2022-12-16T17:43:32.736Z,7.11
2022-12-16T17:46:21.786Z,7.09
2022-12-16T17:49:12.169Z,7.07
2022-12-16T17:51:57.600Z,7.05
2022-12-16T17:54:43.832Z,7.00
2022-12-16T17:57:30.904Z,6.96
2022-12-16T18:00:17.019Z,6.92
2022-12-16T18:03:03.348Z,6.88
2022-12-16T18:05:51.072Z,6.84
2022-12-16T18:08:37.438Z,6.82
2022-12-16T18:11:24.226Z,6.79
2022-12-16T18:14:11.460Z,6.75
2022-12-16T18:16:57.776Z,6.73
2022-12-16T18:19:44.824Z,6.70
2022-12-16T18:22:37.437Z,6.66
2022-12-16T18:25:24.216Z,6.60
2022-12-16T18:28:10.220Z,6.59
2022-12-16T18:30:57.680Z,6.78
2022-12-16T18:33:43.841Z,6.73
2022-12-16T18:36:29.792Z,6.71
2022-12-16T18:39:17.509Z,6.67
2022-12-16T18:42:04.939Z,6.62
2022-12-16T18:45:00.701Z,6.57
2022-12-16T18:47:47.980Z,6.53
2022-12-16T18:50:38.051Z,6.46
2022-12-16T18:53:25.449Z,6.41
2022-12-16T18:56:22.839Z,6.35
2022-12-16T18:59:09.551Z,6.31
2022-12-16T19:01:57.796Z,6.30
2022-12-16T19:04:44.629Z,6.27
2022-12-16T19:07:33.753Z,6.25
2022-12-16T19:10:22.688Z,6.22
2022-12-16T19:13:15.054Z,6.21
2022-12-16T19:16:01.653Z,6.22
2022-12-16T19:18:48.584Z,6.21
2022-12-16T19:21:36.389Z,6.20
2022-12-16T19:24:22.920Z,6.18
2022-12-16T19:27:15.181Z,6.16
2022-12-16T19:30:05.183Z,6.14
2022-12-16T19:32:50.870Z,6.16
2022-12-16T19:35:37.491Z,6.16
2022-12-16T19:38:23.842Z,6.16
2022-12-16T19:41:13.154Z,6.13
2022-12-16T19:47:09.393Z,6.04
2022-12-16T19:49:56.075Z,6.01
2022-12-16T19:52:42.584Z,5.97
2022-12-16T19:55:29.233Z,5.96
2022-12-16T19:58:15.173Z,5.95
2022-12-16T20:01:03.938Z,5.93
2022-12-16T20:03:56.665Z,5.90
2022-12-16T20:07:01.140Z,5.89
2022-12-16T20:09:47.645Z,5.85
2022-12-16T20:12:33.987Z,5.84
2022-12-16T20:15:23.210Z,5.84
2022-12-16T20:18:09.618Z,5.84
2022-12-16T20:20:58.256Z,5.85
2022-12-16T20:23:41.748Z,5.85
2022-12-16T20:26:28.442Z,5.87
2022-12-16T20:29:15.090Z,5.88
2022-12-16T20:32:01.608Z,5.88
2022-12-16T20:34:47.246Z,5.89
2022-12-16T20:37:37.315Z,5.89
2022-12-16T20:40:24.915Z,5.88
2022-12-16T20:43:11.214Z,5.86
2022-12-16T20:45:58.131Z,5.83
2022-12-16T20:48:44.299Z,5.82
2022-12-16T20:51:30.528Z,5.83
2022-12-16T20:54:17.877Z,5.83
2022-12-16T20:57:07.036Z,5.83
2022-12-16T20:59:58.166Z,5.85
2022-12-16T21:02:45.404Z,5.87
2022-12-16T21:05:32.386Z,5.87
2022-12-16T21:08:19.250Z,5.89
2022-12-16T21:11:07.731Z,5.91
2022-12-16T21:13:56.373Z,5.92
2022-12-16T21:16:59.661Z,5.91
2022-12-16T21:19:46.070Z,5.92
2022-12-16T21:22:32.080Z,5.92
2022-12-16T21:25:24.415Z,5.90
2022-12-16T21:28:15.840Z,5.88
2022-12-16T21:31:02.028Z,5.86
2022-12-16T21:33:48.592Z,5.87
2022-12-16T21:36:35.053Z,5.88
2022-12-16T21:39:21.284Z,5.89
2022-12-16T21:42:07.850Z,5.90
2022-12-16T21:48:00.751Z,5.89
2022-12-16T21:50:46.572Z,5.87
2022-12-16T21:53:32.808Z,5.84
2022-12-16T21:56:18.583Z,5.83
2022-12-16T21:59:04.497Z,5.81
2022-12-16T22:01:51.590Z,5.80
2022-12-16T22:04:37.693Z,5.77
2022-12-16T22:07:23.525Z,5.75
2022-12-16T22:10:09.551Z,5.75
2022-12-16T22:12:56.236Z,5.74
2022-12-16T22:15:41.999Z,5.70
2022-12-16T22:18:29.055Z,5.69
2022-12-16T22:21:17.135Z,5.67
2022-12-16T22:24:02.961Z,5.65
2022-12-16T22:26:48.796Z,5.66
2022-12-16T22:29:34.810Z,5.65
2022-12-16T22:32:20.524Z,5.66
2022-12-16T22:35:07.944Z,5.66
2022-12-16T22:37:54.067Z,5.65
2022-12-16T22:40:41.841Z,5.64
2022-12-16T22:43:27.855Z,5.62
2022-12-16T22:46:18.354Z,5.62
2022-12-16T22:49:05.225Z,5.60
2022-12-16T22:51:52.904Z,5.60
2022-12-16T22:54:39.645Z,5.60
2022-12-16T22:57:21.879Z,5.60
2022-12-16T23:00:07.696Z,5.59
2022-12-16T23:02:53.483Z,5.59
2022-12-16T23:05:39.787Z,5.60
2022-12-16T23:08:30.186Z,5.61
2022-12-16T23:11:17.650Z,5.61
2022-12-16T23:14:03.831Z,5.60
2022-12-16T23:16:49.692Z,5.60
2022-12-16T23:19:35.208Z,5.58
2022-12-16T23:22:21.109Z,5.57
2022-12-16T23:25:08.447Z,5.55
2022-12-16T23:27:55.349Z,5.54
2022-12-16T23:30:57.203Z,5.53
2022-12-16T23:33:43.098Z,5.51
2022-12-16T23:36:28.780Z,5.52
2022-12-16T23:39:20.074Z,5.48
2022-12-16T23:42:07.418Z,5.46
2022-12-16T23:44:56.491Z,5.45
2022-12-16T23:47:42.537Z,5.44
2022-12-16T23:50:28.981Z,5.45
2022-12-16T23:53:30.367Z,5.46
2022-12-16T23:56:18.454Z,5.47
2022-12-16T23:59:06.199Z,5.45
